sensor_id;sensor_type;location;lat;lon;timestamp;P1;durP1;ratioP1;P2;durP2;ratioP2
41705;SDS011;27385;51.096;17.190;2024-01-15T00:01:40;20.40;;;5.50;;
41705;SDS011;27385;51.096;17.190;2024-01-15T00:04:37;21.00;;;6.10;;
41705;SDS011;27385;51.096;17.190;2024-01-15T00:07:29;15.50;;;4.90;;
41705;SDS011;27385;51.096;17.190;2024-01-15T00:10:19;20.40;;;5.60;;
41705;SDS011;27385;51.096;17.190;2024-01-15T00:13:11;14.00;;;5.00;;
41705;SDS011;27385;51.096;17.190;2024-01-15T00:16:02;24.70;;;6.90;;
41705;SDS011;27385;51.096;17.190;2024-01-15T00:18:53;24.70;;;7.20;;
41705;SDS011;27385;51.096;17.190;2024-01-15T00:21:44;19.40;;;5.70;;
41705;SDS011;27385;51.096;17.190;2024-01-15T00:24:35;22.00;;;6.30;;
41705;SDS011;27385;51.096;17.190;2024-01-15T00:27:26;24.30;;;6.90;;
41705;SDS011;27385;51.096;17.190;2024-01-15T00:30:17;23.70;;;8.00;;
41705;SDS011;27385;51.096;17.190;2024-01-15T00:33:08;20.00;;;7.20;;
41705;SDS011;27385;51.096;17.190;2024-01-15T00:36:00;24.40;;;6.70;;
41705;SDS011;27385;51.096;17.190;2024-01-15T00:38:51;25.20;;;7.90;;
41705;SDS011;27385;51.096;17.190;2024-01-15T00:41:42;27.60;;;9.50;;
41705;SDS011;27385;51.096;17.190;2024-01-15T00:44:33;27.60;;;9.00;;
41705;SDS011;27385;51.096;17.190;2024-01-15T00:47:24;26.10;;;8.40;;
41705;SDS011;27385;51.096;17.190;2024-01-15T00:50:15;27.00;;;9.60;;
41705;SDS011;27385;51.096;17.190;2024-01-15T00:53:06;26.90;;;8.80;;
41705;SDS011;27385;51.096;17.190;2024-01-15T00:55:57;30.50;;;9.90;;
41705;SDS011;27385;51.096;17.190;2024-01-15T00:58:48;26.70;;;9.50;;
41705;SDS011;27385;51.096;17.190;2024-01-15T01:01:39;29.90;;;8.20;;
41705;SDS011;27385;51.096;17.190;2024-01-15T01:04:31;25.30;;;8.30;;
41705;SDS011;27385;51.096;17.190;2024-01-15T01:07:22;26.30;;;8.40;;
41705;SDS011;27385;51.096;17.190;2024-01-15T01:10:13;32.80;;;9.70;;
41705;SDS011;27385;51.096;17.190;2024-01-15T01:13:05;24.20;;;6.80;;
41705;SDS011;27385;51.096;17.190;2024-01-15T01:15:56;25.00;;;7.20;;
41705;SDS011;27385;51.096;17.190;2024-01-15T01:18:47;25.20;;;7.40;;
41705;SDS011;27385;51.096;17.190;2024-01-15T01:21:38;23.10;;;7.20;;
41705;SDS011;27385;51.096;17.190;2024-01-15T01:24:29;20.40;;;7.10;;
41705;SDS011;27385;51.096;17.190;2024-01-15T01:27:21;19.50;;;6.50;;
41705;SDS011;27385;51.096;17.190;2024-01-15T01:30:12;23.90;;;7.90;;
41705;SDS011;27385;51.096;17.190;2024-01-15T01:33:03;22.00;;;6.50;;
41705;SDS011;27385;51.096;17.190;2024-01-15T01:35:54;20.10;;;6.80;;
41705;SDS011;27385;51.096;17.190;2024-01-15T01:38:45;20.50;;;6.30;;
41705;SDS011;27385;51.096;17.190;2024-01-15T01:41:38;16.40;;;4.60;;
41705;SDS011;27385;51.096;17.190;2024-01-15T01:44:29;17.40;;;5.80;;
41705;SDS011;27385;51.096;17.190;2024-01-15T01:47:20;19.40;;;5.20;;
41705;SDS011;27385;51.096;17.190;2024-01-15T01:50:14;19.30;;;5.50;;
41705;SDS011;27385;51.096;17.190;2024-01-15T01:53:06;20.30;;;6.20;;
41705;SDS011;27385;51.096;17.190;2024-01-15T01:55:57;20.90;;;6.30;;
41705;SDS011;27385;51.096;17.190;2024-01-15T01:58:49;22.20;;;5.90;;
41705;SDS011;27385;51.096;17.190;2024-01-15T02:01:40;20.60;;;6.90;;
41705;SDS011;27385;51.096;17.190;2024-01-15T02:04:32;21.30;;;6.80;;
41705;SDS011;27385;51.096;17.190;2024-01-15T02:07:24;22.40;;;6.40;;
41705;SDS011;27385;51.096;17.190;2024-01-15T02:10:16;22.60;;;6.30;;
41705;SDS011;27385;51.096;17.190;2024-01-15T02:13:07;22.60;;;6.90;;
41705;SDS011;27385;51.096;17.190;2024-01-15T02:15:58;21.50;;;7.90;;
41705;SDS011;27385;51.096;17.190;2024-01-15T02:18:49;16.30;;;4.90;;
41705;SDS011;27385;51.096;17.190;2024-01-15T02:21:40;22.10;;;5.80;;
41705;SDS011;27385;51.096;17.190;2024-01-15T02:27:20;17.90;;;5.40;;
41705;SDS011;27385;51.096;17.190;2024-01-15T02:30:11;18.70;;;4.80;;
41705;SDS011;27385;51.096;17.190;2024-01-15T02:33:03;16.90;;;5.20;;
41705;SDS011;27385;51.096;17.190;2024-01-15T02:35:53;16.80;;;4.80;;
41705;SDS011;27385;51.096;17.190;2024-01-15T02:38:45;22.70;;;5.50;;
41705;SDS011;27385;51.096;17.190;2024-01-15T02:41:36;19.50;;;6.00;;
41705;SDS011;27385;51.096;17.190;2024-01-15T02:44:27;19.50;;;6.20;;
41705;SDS011;27385;51.096;17.190;2024-01-15T02:47:18;17.60;;;5.60;;
41705;SDS011;27385;51.096;17.190;2024-01-15T02:50:09;18.40;;;6.20;;
41705;SDS011;27385;51.096;17.190;2024-01-15T02:53:00;15.70;;;5.10;;
41705;SDS011;27385;51.096;17.190;2024-01-15T02:55:51;19.80;;;5.60;;
41705;SDS011;27385;51.096;17.190;2024-01-15T02:58:42;15.50;;;5.20;;
41705;SDS011;27385;51.096;17.190;2024-01-15T03:01:33;18.00;;;5.40;;
41705;SDS011;27385;51.096;17.190;2024-01-15T03:04:24;21.90;;;5.00;;
41705;SDS011;27385;51.096;17.190;2024-01-15T03:07:14;15.20;;;4.50;;
41705;SDS011;27385;51.096;17.190;2024-01-15T03:10:06;14.40;;;3.80;;
41705;SDS011;27385;51.096;17.190;2024-01-15T03:12:58;18.90;;;4.70;;
41705;SDS011;27385;51.096;17.190;2024-01-15T03:15:50;15.30;;;4.10;;
41705;SDS011;27385;51.096;17.190;2024-01-15T03:18:40;15.20;;;4.10;;
41705;SDS011;27385;51.096;17.190;2024-01-15T03:21:31;14.30;;;4.40;;
41705;SDS011;27385;51.096;17.190;2024-01-15T03:24:22;16.90;;;5.40;;
41705;SDS011;27385;51.096;17.190;2024-01-15T03:27:13;20.40;;;5.40;;
41705;SDS011;27385;51.096;17.190;2024-01-15T03:32:54;14.60;;;3.90;;
41705;SDS011;27385;51.096;17.190;2024-01-15T03:35:45;12.10;;;2.90;;
41705;SDS011;27385;51.096;17.190;2024-01-15T03:38:38;15.40;;;4.00;;
41705;SDS011;27385;51.096;17.190;2024-01-15T03:41:30;15.30;;;4.20;;
41705;SDS011;27385;51.096;17.190;2024-01-15T03:44:21;17.10;;;3.50;;
41705;SDS011;27385;51.096;17.190;2024-01-15T03:47:13;11.70;;;3.20;;
41705;SDS011;27385;51.096;17.190;2024-01-15T03:50:04;13.70;;;3.40;;
41705;SDS011;27385;51.096;17.190;2024-01-15T03:52:55;10.20;;;2.90;;
41705;SDS011;27385;51.096;17.190;2024-01-15T03:55:46;14.20;;;3.30;;
41705;SDS011;27385;51.096;17.190;2024-01-15T03:58:37;12.20;;;2.70;;
41705;SDS011;27385;51.096;17.190;2024-01-15T04:01:28;14.50;;;3.40;;
41705;SDS011;27385;51.096;17.190;2024-01-15T04:04:19;14.70;;;3.50;;
41705;SDS011;27385;51.096;17.190;2024-01-15T04:07:10;14.40;;;3.60;;
41705;SDS011;27385;51.096;17.190;2024-01-15T04:10:01;14.00;;;3.00;;
41705;SDS011;27385;51.096;17.190;2024-01-15T04:12:52;15.00;;;3.30;;
41705;SDS011;27385;51.096;17.190;2024-01-15T04:15:43;13.90;;;3.50;;
41705;SDS011;27385;51.096;17.190;2024-01-15T04:18:34;15.50;;;3.20;;
41705;SDS011;27385;51.096;17.190;2024-01-15T04:21:25;14.40;;;3.00;;
41705;SDS011;27385;51.096;17.190;2024-01-15T04:24:16;13.70;;;2.70;;
41705;SDS011;27385;51.096;17.190;2024-01-15T04:27:07;13.00;;;2.90;;
41705;SDS011;27385;51.096;17.190;2024-01-15T04:29:58;17.50;;;3.20;;
41705;SDS011;27385;51.096;17.190;2024-01-15T04:32:49;11.50;;;2.60;;
41705;SDS011;27385;51.096;17.190;2024-01-15T04:35:41;16.00;;;3.90;;
41705;SDS011;27385;51.096;17.190;2024-01-15T04:38:32;15.40;;;3.50;;
41705;SDS011;27385;51.096;17.190;2024-01-15T04:41:24;15.10;;;3.40;;
41705;SDS011;27385;51.096;17.190;2024-01-15T04:44:15;16.30;;;3.80;;
41705;SDS011;27385;51.096;17.190;2024-01-15T04:47:06;14.40;;;4.40;;
41705;SDS011;27385;51.096;17.190;2024-01-15T04:49:57;18.20;;;5.10;;
41705;SDS011;27385;51.096;17.190;2024-01-15T04:52:48;14.30;;;4.00;;
41705;SDS011;27385;51.096;17.190;2024-01-15T04:55:39;16.20;;;3.70;;
41705;SDS011;27385;51.096;17.190;2024-01-15T05:01:19;14.40;;;3.90;;
41705;SDS011;27385;51.096;17.190;2024-01-15T05:04:10;12.60;;;3.40;;
41705;SDS011;27385;51.096;17.190;2024-01-15T05:07:01;15.90;;;4.00;;
41705;SDS011;27385;51.096;17.190;2024-01-15T05:09:52;16.80;;;3.60;;
41705;SDS011;27385;51.096;17.190;2024-01-15T05:12:43;17.40;;;4.30;;
41705;SDS011;27385;51.096;17.190;2024-01-15T05:15:34;17.50;;;4.20;;
41705;SDS011;27385;51.096;17.190;2024-01-15T05:18:25;13.20;;;3.70;;
41705;SDS011;27385;51.096;17.190;2024-01-15T05:21:16;14.40;;;3.20;;
41705;SDS011;27385;51.096;17.190;2024-01-15T05:24:07;14.60;;;3.10;;
41705;SDS011;27385;51.096;17.190;2024-01-15T05:26:58;15.70;;;3.40;;
41705;SDS011;27385;51.096;17.190;2024-01-15T05:29:49;12.10;;;2.20;;
41705;SDS011;27385;51.096;17.190;2024-01-15T05:32:40;11.40;;;2.30;;
41705;SDS011;27385;51.096;17.190;2024-01-15T05:35:31;12.30;;;2.40;;
41705;SDS011;27385;51.096;17.190;2024-01-15T05:38:22;12.70;;;3.30;;
41705;SDS011;27385;51.096;17.190;2024-01-15T05:41:13;11.10;;;2.30;;
41705;SDS011;27385;51.096;17.190;2024-01-15T05:44:04;12.30;;;2.70;;
41705;SDS011;27385;51.096;17.190;2024-01-15T05:46:55;13.70;;;2.60;;
41705;SDS011;27385;51.096;17.190;2024-01-15T05:49:46;15.90;;;2.90;;
41705;SDS011;27385;51.096;17.190;2024-01-15T05:55:25;13.50;;;3.20;;
41705;SDS011;27385;51.096;17.190;2024-01-15T05:58:16;11.00;;;2.90;;
41705;SDS011;27385;51.096;17.190;2024-01-15T06:01:07;12.70;;;3.40;;
41705;SDS011;27385;51.096;17.190;2024-01-15T06:03:58;14.20;;;2.90;;
41705;SDS011;27385;51.096;17.190;2024-01-15T06:06:49;14.70;;;3.00;;
41705;SDS011;27385;51.096;17.190;2024-01-15T06:09:40;12.60;;;3.70;;
41705;SDS011;27385;51.096;17.190;2024-01-15T06:12:31;12.40;;;3.40;;
41705;SDS011;27385;51.096;17.190;2024-01-15T06:15:22;13.40;;;2.90;;
41705;SDS011;27385;51.096;17.190;2024-01-15T06:18:13;11.50;;;2.60;;
41705;SDS011;27385;51.096;17.190;2024-01-15T06:21:04;12.20;;;3.10;;
41705;SDS011;27385;51.096;17.190;2024-01-15T06:23:56;17.20;;;4.50;;
41705;SDS011;27385;51.096;17.190;2024-01-15T06:26:47;19.70;;;4.70;;
41705;SDS011;27385;51.096;17.190;2024-01-15T06:29:38;19.20;;;4.90;;
41705;SDS011;27385;51.096;17.190;2024-01-15T06:32:34;17.50;;;4.90;;
41705;SDS011;27385;51.096;17.190;2024-01-15T06:35:25;16.90;;;5.20;;
41705;SDS011;27385;51.096;17.190;2024-01-15T06:38:16;18.60;;;4.80;;
41705;SDS011;27385;51.096;17.190;2024-01-15T06:41:07;14.60;;;3.80;;
41705;SDS011;27385;51.096;17.190;2024-01-15T06:43:57;19.70;;;4.50;;
41705;SDS011;27385;51.096;17.190;2024-01-15T06:46:48;15.80;;;4.40;;
41705;SDS011;27385;51.096;17.190;2024-01-15T06:49:39;14.50;;;3.20;;
41705;SDS011;27385;51.096;17.190;2024-01-15T06:52:30;19.80;;;3.90;;
41705;SDS011;27385;51.096;17.190;2024-01-15T06:55:21;12.20;;;3.10;;
41705;SDS011;27385;51.096;17.190;2024-01-15T06:58:12;11.90;;;3.10;;
41705;SDS011;27385;51.096;17.190;2024-01-15T07:01:03;12.90;;;2.50;;
41705;SDS011;27385;51.096;17.190;2024-01-15T07:03:53;15.70;;;2.90;;
41705;SDS011;27385;51.096;17.190;2024-01-15T07:06:44;14.30;;;3.30;;
41705;SDS011;27385;51.096;17.190;2024-01-15T07:09:36;18.20;;;3.40;;
41705;SDS011;27385;51.096;17.190;2024-01-15T07:12:27;12.70;;;2.30;;
41705;SDS011;27385;51.096;17.190;2024-01-15T07:15:18;16.60;;;4.30;;
41705;SDS011;27385;51.096;17.190;2024-01-15T07:18:09;14.20;;;2.80;;
41705;SDS011;27385;51.096;17.190;2024-01-15T07:21:00;17.40;;;3.50;;
41705;SDS011;27385;51.096;17.190;2024-01-15T07:23:52;15.70;;;3.50;;
41705;SDS011;27385;51.096;17.190;2024-01-15T07:26:43;17.30;;;3.90;;
41705;SDS011;27385;51.096;17.190;2024-01-15T07:29:34;14.00;;;3.70;;
41705;SDS011;27385;51.096;17.190;2024-01-15T07:32:26;13.20;;;3.10;;
41705;SDS011;27385;51.096;17.190;2024-01-15T07:35:17;13.10;;;3.30;;
41705;SDS011;27385;51.096;17.190;2024-01-15T07:38:08;16.60;;;4.20;;
41705;SDS011;27385;51.096;17.190;2024-01-15T07:41:00;16.20;;;4.00;;
41705;SDS011;27385;51.096;17.190;2024-01-15T07:43:51;17.30;;;3.50;;
41705;SDS011;27385;51.096;17.190;2024-01-15T07:46:45;19.90;;;5.10;;
41705;SDS011;27385;51.096;17.190;2024-01-15T07:49:36;14.90;;;3.90;;
41705;SDS011;27385;51.096;17.190;2024-01-15T07:52:27;12.60;;;3.20;;
41705;SDS011;27385;51.096;17.190;2024-01-15T07:55:19;16.90;;;3.30;;
41705;SDS011;27385;51.096;17.190;2024-01-15T07:58:09;15.50;;;3.20;;
41705;SDS011;27385;51.096;17.190;2024-01-15T08:01:00;15.20;;;3.20;;
41705;SDS011;27385;51.096;17.190;2024-01-15T08:03:52;16.80;;;4.40;;
41705;SDS011;27385;51.096;17.190;2024-01-15T08:06:43;13.40;;;2.90;;
41705;SDS011;27385;51.096;17.190;2024-01-15T08:09:34;12.60;;;2.60;;
41705;SDS011;27385;51.096;17.190;2024-01-15T08:12:24;14.90;;;2.90;;
41705;SDS011;27385;51.096;17.190;2024-01-15T08:15:15;14.50;;;2.40;;
41705;SDS011;27385;51.096;17.190;2024-01-15T08:18:06;14.20;;;2.40;;
41705;SDS011;27385;51.096;17.190;2024-01-15T08:20:57;16.60;;;3.40;;
41705;SDS011;27385;51.096;17.190;2024-01-15T08:23:49;14.10;;;2.90;;
41705;SDS011;27385;51.096;17.190;2024-01-15T08:26:39;13.40;;;2.50;;
41705;SDS011;27385;51.096;17.190;2024-01-15T08:29:31;14.50;;;3.00;;
41705;SDS011;27385;51.096;17.190;2024-01-15T08:32:22;14.50;;;2.30;;
41705;SDS011;27385;51.096;17.190;2024-01-15T08:35:13;14.70;;;2.20;;
41705;SDS011;27385;51.096;17.190;2024-01-15T08:38:04;14.00;;;2.70;;
41705;SDS011;27385;51.096;17.190;2024-01-15T08:40:55;11.90;;;2.80;;
41705;SDS011;27385;51.096;17.190;2024-01-15T08:43:48;12.00;;;2.20;;
41705;SDS011;27385;51.096;17.190;2024-01-15T08:46:40;11.10;;;2.30;;
41705;SDS011;27385;51.096;17.190;2024-01-15T08:49:32;14.50;;;2.50;;
41705;SDS011;27385;51.096;17.190;2024-01-15T08:52:24;17.00;;;2.70;;
41705;SDS011;27385;51.096;17.190;2024-01-15T08:55:15;15.40;;;3.60;;
41705;SDS011;27385;51.096;17.190;2024-01-15T08:58:06;17.60;;;2.70;;
41705;SDS011;27385;51.096;17.190;2024-01-15T09:00:57;13.10;;;2.50;;
41705;SDS011;27385;51.096;17.190;2024-01-15T09:06:36;12.30;;;2.30;;
41705;SDS011;27385;51.096;17.190;2024-01-15T09:12:16;12.10;;;1.60;;
41705;SDS011;27385;51.096;17.190;2024-01-15T09:15:09;10.00;;;1.90;;
41705;SDS011;27385;51.096;17.190;2024-01-15T09:18:00;12.30;;;2.40;;
41705;SDS011;27385;51.096;17.190;2024-01-15T09:20:51;13.50;;;2.10;;
41705;SDS011;27385;51.096;17.190;2024-01-15T09:23:42;12.30;;;2.30;;
41705;SDS011;27385;51.096;17.190;2024-01-15T09:26:39;9.50;;;1.60;;
41705;SDS011;27385;51.096;17.190;2024-01-15T09:29:31;9.70;;;1.90;;
41705;SDS011;27385;51.096;17.190;2024-01-15T09:32:24;13.40;;;2.10;;
41705;SDS011;27385;51.096;17.190;2024-01-15T09:35:15;25.80;;;5.20;;
41705;SDS011;27385;51.096;17.190;2024-01-15T09:38:06;11.40;;;2.80;;
41705;SDS011;27385;51.096;17.190;2024-01-15T09:40:59;9.60;;;1.60;;
41705;SDS011;27385;51.096;17.190;2024-01-15T09:46:40;11.60;;;1.70;;
41705;SDS011;27385;51.096;17.190;2024-01-15T09:49:32;8.20;;;1.20;;
41705;SDS011;27385;51.096;17.190;2024-01-15T09:52:24;9.70;;;1.60;;
41705;SDS011;27385;51.096;17.190;2024-01-15T09:55:15;8.00;;;1.10;;
41705;SDS011;27385;51.096;17.190;2024-01-15T09:58:07;11.10;;;1.40;;
41705;SDS011;27385;51.096;17.190;2024-01-15T10:00:59;11.40;;;1.90;;
41705;SDS011;27385;51.096;17.190;2024-01-15T10:03:53;11.50;;;1.70;;
41705;SDS011;27385;51.096;17.190;2024-01-15T10:06:45;10.80;;;1.70;;
41705;SDS011;27385;51.096;17.190;2024-01-15T10:09:39;6.70;;;1.30;;
41705;SDS011;27385;51.096;17.190;2024-01-15T10:15:21;9.80;;;1.30;;
41705;SDS011;27385;51.096;17.190;2024-01-15T10:18:14;9.60;;;1.50;;
41705;SDS011;27385;51.096;17.190;2024-01-15T10:21:05;7.70;;;1.40;;
41705;SDS011;27385;51.096;17.190;2024-01-15T10:23:56;13.90;;;1.40;;
41705;SDS011;27385;51.096;17.190;2024-01-15T10:26:49;12.10;;;1.60;;
41705;SDS011;27385;51.096;17.190;2024-01-15T10:29:40;13.90;;;1.90;;
41705;SDS011;27385;51.096;17.190;2024-01-15T10:32:32;15.90;;;1.90;;
41705;SDS011;27385;51.096;17.190;2024-01-15T10:35:22;10.00;;;1.50;;
41705;SDS011;27385;51.096;17.190;2024-01-15T10:38:22;10.50;;;1.50;;
41705;SDS011;27385;51.096;17.190;2024-01-15T10:41:13;8.60;;;1.40;;
41705;SDS011;27385;51.096;17.190;2024-01-15T10:44:04;8.10;;;1.30;;
41705;SDS011;27385;51.096;17.190;2024-01-15T10:46:56;9.90;;;1.30;;
41705;SDS011;27385;51.096;17.190;2024-01-15T10:49:47;9.90;;;1.60;;
41705;SDS011;27385;51.096;17.190;2024-01-15T10:52:39;5.50;;;1.10;;
41705;SDS011;27385;51.096;17.190;2024-01-15T10:55:31;9.60;;;1.50;;
41705;SDS011;27385;51.096;17.190;2024-01-15T10:58:24;5.90;;;1.30;;
41705;SDS011;27385;51.096;17.190;2024-01-15T11:01:20;8.40;;;1.40;;
41705;SDS011;27385;51.096;17.190;2024-01-15T11:04:11;12.00;;;1.40;;
41705;SDS011;27385;51.096;17.190;2024-01-15T11:07:04;9.10;;;1.80;;
41705;SDS011;27385;51.096;17.190;2024-01-15T11:09:56;10.50;;;1.30;;
41705;SDS011;27385;51.096;17.190;2024-01-15T11:12:48;9.50;;;1.60;;
41705;SDS011;27385;51.096;17.190;2024-01-15T11:15:57;16.30;;;1.80;;
41705;SDS011;27385;51.096;17.190;2024-01-15T11:19:02;8.20;;;1.70;;
41705;SDS011;27385;51.096;17.190;2024-01-15T11:21:56;13.80;;;1.70;;
41705;SDS011;27385;51.096;17.190;2024-01-15T11:24:46;13.70;;;2.10;;
41705;SDS011;27385;51.096;17.190;2024-01-15T11:27:40;15.60;;;2.50;;
41705;SDS011;27385;51.096;17.190;2024-01-15T11:30:32;16.50;;;2.90;;
41705;SDS011;27385;51.096;17.190;2024-01-15T11:33:33;20.30;;;4.50;;
41705;SDS011;27385;51.096;17.190;2024-01-15T11:39:45;12.20;;;2.00;;
41705;SDS011;27385;51.096;17.190;2024-01-15T11:42:36;11.60;;;1.80;;
41705;SDS011;27385;51.096;17.190;2024-01-15T11:45:27;14.90;;;1.60;;
41705;SDS011;27385;51.096;17.190;2024-01-15T11:48:19;13.10;;;1.60;;
41705;SDS011;27385;51.096;17.190;2024-01-15T11:51:14;8.90;;;1.30;;
41705;SDS011;27385;51.096;17.190;2024-01-15T11:54:07;9.90;;;1.50;;
41705;SDS011;27385;51.096;17.190;2024-01-15T11:57:01;10.80;;;1.70;;
41705;SDS011;27385;51.096;17.190;2024-01-15T11:59:58;10.90;;;1.40;;
41705;SDS011;27385;51.096;17.190;2024-01-15T12:03:00;8.90;;;1.40;;
41705;SDS011;27385;51.096;17.190;2024-01-15T12:05:54;9.90;;;1.10;;
41705;SDS011;27385;51.096;17.190;2024-01-15T12:08:46;7.70;;;1.50;;
41705;SDS011;27385;51.096;17.190;2024-01-15T12:11:37;9.00;;;1.60;;
41705;SDS011;27385;51.096;17.190;2024-01-15T12:14:38;7.60;;;1.60;;
41705;SDS011;27385;51.096;17.190;2024-01-15T12:17:29;12.20;;;1.30;;
41705;SDS011;27385;51.096;17.190;2024-01-15T12:20:20;7.70;;;1.60;;
41705;SDS011;27385;51.096;17.190;2024-01-15T12:23:11;9.20;;;1.50;;
41705;SDS011;27385;51.096;17.190;2024-01-15T12:26:02;9.70;;;1.40;;
41705;SDS011;27385;51.096;17.190;2024-01-15T12:28:54;8.80;;;1.30;;
41705;SDS011;27385;51.096;17.190;2024-01-15T12:31:47;8.80;;;1.80;;
41705;SDS011;27385;51.096;17.190;2024-01-15T12:34:39;11.00;;;1.40;;
41705;SDS011;27385;51.096;17.190;2024-01-15T12:37:32;9.50;;;1.50;;
41705;SDS011;27385;51.096;17.190;2024-01-15T12:40:25;8.30;;;1.80;;
41705;SDS011;27385;51.096;17.190;2024-01-15T12:46:05;10.60;;;1.60;;
41705;SDS011;27385;51.096;17.190;2024-01-15T12:48:57;12.90;;;1.80;;
41705;SDS011;27385;51.096;17.190;2024-01-15T12:51:53;13.60;;;1.70;;
41705;SDS011;27385;51.096;17.190;2024-01-15T12:54:45;9.30;;;1.70;;
41705;SDS011;27385;51.096;17.190;2024-01-15T12:57:40;11.40;;;1.70;;
41705;SDS011;27385;51.096;17.190;2024-01-15T13:00:32;10.80;;;1.60;;
41705;SDS011;27385;51.096;17.190;2024-01-15T13:06:12;13.60;;;1.70;;
41705;SDS011;27385;51.096;17.190;2024-01-15T13:11:53;8.50;;;1.10;;
41705;SDS011;27385;51.096;17.190;2024-01-15T13:14:44;18.40;;;2.00;;
41705;SDS011;27385;51.096;17.190;2024-01-15T13:17:36;6.90;;;1.30;;
41705;SDS011;27385;51.096;17.190;2024-01-15T13:23:15;11.90;;;2.10;;
41705;SDS011;27385;51.096;17.190;2024-01-15T13:28:55;9.30;;;1.30;;
41705;SDS011;27385;51.096;17.190;2024-01-15T13:34:35;12.80;;;1.50;;
41705;SDS011;27385;51.096;17.190;2024-01-15T13:40:15;8.70;;;1.10;;
41705;SDS011;27385;51.096;17.190;2024-01-15T13:43:08;9.70;;;0.90;;
41705;SDS011;27385;51.096;17.190;2024-01-15T13:45:59;10.80;;;1.80;;
41705;SDS011;27385;51.096;17.190;2024-01-15T13:48:52;10.90;;;2.10;;
41705;SDS011;27385;51.096;17.190;2024-01-15T13:51:43;8.80;;;1.70;;
41705;SDS011;27385;51.096;17.190;2024-01-15T13:54:34;13.40;;;2.50;;
41705;SDS011;27385;51.096;17.190;2024-01-15T13:57:28;14.30;;;1.60;;
41705;SDS011;27385;51.096;17.190;2024-01-15T14:00:19;15.30;;;1.60;;
41705;SDS011;27385;51.096;17.190;2024-01-15T14:03:11;11.30;;;1.40;;
41705;SDS011;27385;51.096;17.190;2024-01-15T14:06:02;10.30;;;1.50;;
41705;SDS011;27385;51.096;17.190;2024-01-15T14:08:56;14.60;;;2.00;;
41705;SDS011;27385;51.096;17.190;2024-01-15T14:11:47;11.20;;;1.80;;
41705;SDS011;27385;51.096;17.190;2024-01-15T14:14:38;15.10;;;1.80;;
41705;SDS011;27385;51.096;17.190;2024-01-15T14:17:29;16.90;;;3.40;;
41705;SDS011;27385;51.096;17.190;2024-01-15T14:20:21;17.90;;;3.80;;
41705;SDS011;27385;51.096;17.190;2024-01-15T14:23:12;24.80;;;4.80;;
41705;SDS011;27385;51.096;17.190;2024-01-15T14:26:03;19.10;;;3.90;;
41705;SDS011;27385;51.096;17.190;2024-01-15T14:28:54;12.70;;;1.90;;
41705;SDS011;27385;51.096;17.190;2024-01-15T14:31:46;12.00;;;2.40;;
41705;SDS011;27385;51.096;17.190;2024-01-15T14:34:37;14.20;;;3.10;;
41705;SDS011;27385;51.096;17.190;2024-01-15T14:37:28;17.40;;;3.90;;
41705;SDS011;27385;51.096;17.190;2024-01-15T14:40:19;22.00;;;4.50;;
41705;SDS011;27385;51.096;17.190;2024-01-15T14:43:11;15.90;;;3.70;;
41705;SDS011;27385;51.096;17.190;2024-01-15T14:46:02;19.90;;;3.80;;
41705;SDS011;27385;51.096;17.190;2024-01-15T14:48:53;20.80;;;5.30;;
41705;SDS011;27385;51.096;17.190;2024-01-15T14:51:44;18.20;;;4.90;;
41705;SDS011;27385;51.096;17.190;2024-01-15T14:54:37;18.50;;;3.70;;
41705;SDS011;27385;51.096;17.190;2024-01-15T14:57:27;18.10;;;3.50;;
41705;SDS011;27385;51.096;17.190;2024-01-15T15:00:18;20.50;;;5.60;;
41705;SDS011;27385;51.096;17.190;2024-01-15T15:03:10;17.90;;;4.50;;
41705;SDS011;27385;51.096;17.190;2024-01-15T15:06:03;21.80;;;5.60;;
41705;SDS011;27385;51.096;17.190;2024-01-15T15:08:55;16.90;;;3.70;;
41705;SDS011;27385;51.096;17.190;2024-01-15T15:11:47;19.40;;;4.00;;
41705;SDS011;27385;51.096;17.190;2024-01-15T15:14:40;19.40;;;4.30;;
41705;SDS011;27385;51.096;17.190;2024-01-15T15:17:31;19.50;;;4.80;;
41705;SDS011;27385;51.096;17.190;2024-01-15T15:20:24;20.00;;;3.90;;
41705;SDS011;27385;51.096;17.190;2024-01-15T15:23:15;19.20;;;4.80;;
41705;SDS011;27385;51.096;17.190;2024-01-15T15:26:06;15.00;;;4.00;;
41705;SDS011;27385;51.096;17.190;2024-01-15T15:28:57;15.80;;;3.40;;
41705;SDS011;27385;51.096;17.190;2024-01-15T15:31:49;13.30;;;2.70;;
41705;SDS011;27385;51.096;17.190;2024-01-15T15:34:40;14.60;;;3.60;;
41705;SDS011;27385;51.096;17.190;2024-01-15T15:37:33;18.90;;;3.20;;
41705;SDS011;27385;51.096;17.190;2024-01-15T15:40:24;16.40;;;3.60;;
41705;SDS011;27385;51.096;17.190;2024-01-15T15:43:15;19.70;;;3.50;;
41705;SDS011;27385;51.096;17.190;2024-01-15T15:46:06;17.20;;;4.40;;
41705;SDS011;27385;51.096;17.190;2024-01-15T15:48:57;15.80;;;3.40;;
41705;SDS011;27385;51.096;17.190;2024-01-15T15:51:49;14.30;;;3.10;;
41705;SDS011;27385;51.096;17.190;2024-01-15T15:54:40;16.30;;;3.70;;
41705;SDS011;27385;51.096;17.190;2024-01-15T15:57:31;14.70;;;3.50;;
41705;SDS011;27385;51.096;17.190;2024-01-15T16:00:22;19.00;;;4.20;;
41705;SDS011;27385;51.096;17.190;2024-01-15T16:03:13;38.80;;;10.80;;
41705;SDS011;27385;51.096;17.190;2024-01-15T16:06:04;23.90;;;4.50;;
41705;SDS011;27385;51.096;17.190;2024-01-15T16:08:55;16.30;;;4.10;;
41705;SDS011;27385;51.096;17.190;2024-01-15T16:11:46;22.80;;;4.80;;
41705;SDS011;27385;51.096;17.190;2024-01-15T16:14:38;16.30;;;3.00;;
41705;SDS011;27385;51.096;17.190;2024-01-15T16:17:28;16.80;;;3.50;;
41705;SDS011;27385;51.096;17.190;2024-01-15T16:20:20;22.80;;;5.40;;
41705;SDS011;27385;51.096;17.190;2024-01-15T16:23:12;16.90;;;3.90;;
41705;SDS011;27385;51.096;17.190;2024-01-15T16:26:03;16.70;;;3.70;;
41705;SDS011;27385;51.096;17.190;2024-01-15T16:28:54;22.20;;;4.40;;
41705;SDS011;27385;51.096;17.190;2024-01-15T16:31:45;15.10;;;3.90;;
41705;SDS011;27385;51.096;17.190;2024-01-15T16:34:36;17.20;;;3.00;;
41705;SDS011;27385;51.096;17.190;2024-01-15T16:37:27;17.20;;;3.80;;
41705;SDS011;27385;51.096;17.190;2024-01-15T16:40:18;22.20;;;4.60;;
41705;SDS011;27385;51.096;17.190;2024-01-15T16:43:09;13.60;;;3.60;;
41705;SDS011;27385;51.096;17.190;2024-01-15T16:46:00;20.70;;;5.40;;
41705;SDS011;27385;51.096;17.190;2024-01-15T16:48:51;15.50;;;3.90;;
41705;SDS011;27385;51.096;17.190;2024-01-15T16:54:32;15.50;;;3.20;;
41705;SDS011;27385;51.096;17.190;2024-01-15T16:57:23;14.70;;;3.60;;
41705;SDS011;27385;51.096;17.190;2024-01-15T17:00:14;18.20;;;4.50;;
41705;SDS011;27385;51.096;17.190;2024-01-15T17:03:05;16.40;;;4.40;;
41705;SDS011;27385;51.096;17.190;2024-01-15T17:05:57;19.70;;;4.70;;
41705;SDS011;27385;51.096;17.190;2024-01-15T17:08:48;18.20;;;5.10;;
41705;SDS011;27385;51.096;17.190;2024-01-15T17:11:39;18.70;;;4.50;;
41705;SDS011;27385;51.096;17.190;2024-01-15T17:14:30;18.60;;;3.80;;
41705;SDS011;27385;51.096;17.190;2024-01-15T17:17:21;17.30;;;5.30;;
41705;SDS011;27385;51.096;17.190;2024-01-15T17:20:12;16.10;;;4.20;;
41705;SDS011;27385;51.096;17.190;2024-01-15T17:23:03;15.00;;;3.90;;
41705;SDS011;27385;51.096;17.190;2024-01-15T17:25:55;16.40;;;3.20;;
41705;SDS011;27385;51.096;17.190;2024-01-15T17:28:46;18.40;;;4.30;;
41705;SDS011;27385;51.096;17.190;2024-01-15T17:31:37;18.70;;;5.20;;
41705;SDS011;27385;51.096;17.190;2024-01-15T17:34:28;20.40;;;5.90;;